Time;durP1;ratioP1;P1;durP2;ratioP2;P2;SDS_P1;SDS_P2;PMS_P1;PMS_P2;Temp;Humidity;BMP_temperature;BMP_pressure;BME280_temperature;BME280_humidity;BME280_pressure;Samples;Min_cycle;Max_cycle;Signal;HPM_P1;HPM_P2
2021/08/06 00:05:29;;;;;;;7.25;5.30;;;19.80;93.10;;;;;;5027719;28;20040;-70
2021/08/06 00:08:13;;;;;;;6.40;5.37;;;19.80;93.10;;;;;;5017209;28;20036;-70
2021/08/06 00:10:57;;;;;;;7.57;5.80;;;19.80;93.20;;;;;;5014389;28;20102;-70
2021/08/06 00:13:41;;;;;;;7.97;5.25;;;19.80;93.30;;;;;;5030666;28;20082;-70
2021/08/06 00:16:26;;;;;;;5.70;5.10;;;19.70;93.40;;;;;;5012943;28;20096;-71
2021/08/06 00:19:10;;;;;;;10.55;5.30;;;19.70;93.40;;;;;;5014355;28;20457;-70
2021/08/06 00:21:54;;;;;;;5.90;4.93;;;19.70;93.40;;;;;;5012530;28;20096;-71
2021/08/06 00:24:38;;;;;;;5.45;4.90;;;19.70;93.40;;;;;;5017758;28;20040;-70
2021/08/06 00:27:22;;;;;;;5.80;4.70;;;19.70;93.40;;;;;;5017378;28;20044;-70
2021/08/06 00:30:07;;;;;;;5.33;4.73;;;19.70;93.40;;;;;;5029810;28;20095;-70
2021/08/06 00:32:51;;;;;;;;;;;19.70;93.40;;;;;;5027307;28;20353;-70
2021/08/06 00:35:35;;;;;;;5.85;4.55;;;19.70;93.10;;;;;;5030045;28;20418;-70
2021/08/06 00:38:19;;;;;;;5.63;4.95;;;19.70;93.40;;;;;;5031358;28;20075;-75
2021/08/06 00:41:04;;;;;;;6.63;5.65;;;19.70;93.50;;;;;;5013172;28;20044;-75
2021/08/06 00:43:47;;;;;;;7.07;5.75;;;19.70;93.60;;;;;;5029550;28;20037;-72
2021/08/06 00:46:32;;;;;;;6.37;5.40;;;19.70;93.60;;;;;;5031070;28;20067;-72
2021/08/06 00:49:16;;;;;;;6.35;4.75;;;19.70;93.60;;;;;;5027542;28;20308;-73
2021/08/06 00:52:01;;;;;;;7.00;5.37;;;19.80;93.70;;;;;;5030441;28;20075;-73
2021/08/06 00:54:46;;;;;;;;;;;19.80;93.60;;;;;;5030024;28;20310;-73
2021/08/06 00:57:30;;;;;;;7.20;5.83;;;19.80;93.40;;;;;;5028698;28;19916;-73
2021/08/06 01:00:15;;;;;;;7.47;6.00;;;19.70;93.60;;;;;;5035553;28;20119;-73
2021/08/06 01:03:14;;;;;;;7.47;6.00;;;19.80;93.70;;;;;;5030206;28;20477;-73
2021/08/06 01:06:08;;;;;;;6.40;5.55;;;19.70;93.70;;;;;;5028286;28;20040;-73
2021/08/06 01:09:10;;;;;;;6.95;5.25;;;19.80;93.80;;;;;;5029330;28;20052;-73
2021/08/06 01:12:01;;;;;;;6.70;5.43;;;19.80;93.80;;;;;;5013661;28;20087;-73
2021/08/06 01:14:49;;;;;;;6.35;5.45;;;19.80;93.80;;;;;;5023723;28;20512;-73
2021/08/06 01:17:36;;;;;;;5.72;5.15;;;19.80;93.90;;;;;;5018319;28;20940;-73
2021/08/06 01:20:33;;;;;;;6.47;5.35;;;19.80;93.90;;;;;;5028643;28;20060;-73
2021/08/06 01:23:33;;;;;;;6.53;5.53;;;19.90;93.90;;;;;;5030736;28;20090;-73
2021/08/06 01:26:20;;;;;;;7.00;6.30;;;19.90;93.90;;;;;;5015944;28;20040;-73
2021/08/06 01:29:04;;;;;;;7.00;5.20;;;19.90;93.90;;;;;;5027795;28;20045;-73
2021/08/06 01:31:49;;;;;;;6.25;5.45;;;19.90;93.90;;;;;;5031353;28;20468;-73
2021/08/06 01:34:33;;;;;;;6.38;5.25;;;19.90;93.90;;;;;;5024890;28;20099;-72
2021/08/06 01:37:17;;;;;;;7.38;5.70;;;19.90;93.90;;;;;;5013937;28;20119;-73
2021/08/06 01:40:05;;;;;;;6.00;5.40;;;19.90;93.90;;;;;;5028617;28;20124;-73
2021/08/06 01:42:58;;;;;;;6.40;5.28;;;19.90;93.90;;;;;;5028974;28;20040;-73
2021/08/06 01:45:48;;;;;;;7.28;5.72;;;19.90;93.90;;;;;;5029560;28;20032;-73
2021/08/06 01:48:36;;;;;;;6.38;5.60;;;19.90;93.90;;;;;;5030307;28;20083;-73
2021/08/06 01:51:22;;;;;;;6.53;5.25;;;19.90;93.90;;;;;;5031153;28;20064;-73
2021/08/06 01:54:07;;;;;;;6.18;5.57;;;19.90;94.00;;;;;;5028498;28;20524;-73
2021/08/06 01:56:52;;;;;;;6.07;5.47;;;19.90;94.00;;;;;;5029693;28;20060;-73
2021/08/06 01:59:37;;;;;;;5.70;5.00;;;19.80;93.90;;;;;;5028729;28;20048;-73
2021/08/06 02:02:10;;;;;;;8.93;5.80;;;19.80;93.90;;;;;;5019673;28;20116;-73
2021/08/06 02:04:54;;;;;;;8.73;5.60;;;19.80;93.90;;;;;;5028606;28;20398;-70
2021/08/06 02:07:40;;;;;;;5.95;5.32;;;19.80;93.90;;;;;;5031526;28;20032;-69
2021/08/06 02:10:28;;;;;;;7.38;5.78;;;19.80;93.90;;;;;;5027386;28;20056;-69
2021/08/06 02:13:13;;;;;;;5.88;5.30;;;19.80;93.90;;;;;;5030451;28;20048;-69
2021/08/06 02:15:58;;;;;;;6.55;5.95;;;19.80;93.80;;;;;;5026979;28;20095;-70
2021/08/06 02:18:47;;;;;;;6.70;5.57;;;19.80;93.90;;;;;;5031013;28;20107;-70
2021/08/06 02:21:35;;;;;;;7.93;5.57;;;19.80;93.90;;;;;;5028710;28;20033;-70
2021/08/06 02:24:21;;;;;;;9.30;5.78;;;19.70;93.90;;;;;;5031216;28;20044;-70
2021/08/06 02:27:06;;;;;;;8.10;5.07;;;19.70;93.90;;;;;;5028696;28;20080;-70
2021/08/06 02:29:54;;;;;;;7.15;5.70;;;19.70;93.90;;;;;;5029547;28;20604;-70
2021/08/06 02:32:39;;;;;;;6.47;5.82;;;19.80;94.00;;;;;;5029677;28;20043;-70
2021/08/06 02:35:23;;;;;;;7.20;5.75;;;19.70;94.00;;;;;;5029777;28;20524;-73
2021/08/06 02:38:07;;;;;;;7.97;5.53;;;19.70;94.00;;;;;;5034716;28;20045;-73
2021/08/06 02:40:51;;;;;;;7.15;6.38;;;19.70;94.00;;;;;;5018134;28;20152;-73
2021/08/06 02:43:38;;;;;;;7.17;6.27;;;19.70;94.00;;;;;;5033598;28;20052;-73
2021/08/06 02:46:22;;;;;;;6.55;5.88;;;19.70;94.10;;;;;;5032565;28;20282;-73
2021/08/06 02:49:06;;;;;;;7.65;6.72;;;19.70;94.20;;;;;;5032925;28;20111;-73
2021/08/06 02:51:50;;;;;;;8.20;6.40;;;19.70;94.20;;;;;;5031539;28;20028;-73
2021/08/06 02:54:35;;;;;;;16.47;7.27;;;19.70;94.20;;;;;;5018249;28;20130;-73
2021/08/06 02:57:19;;;;;;;7.95;6.28;;;19.60;94.20;;;;;;5033252;28;20176;-73
2021/08/06 03:00:04;;;;;;;7.05;5.85;;;19.60;94.20;;;;;;5033264;28;20397;-73
2021/08/06 03:02:48;;;;;;;7.40;5.63;;;19.60;94.20;;;;;;5032638;28;20627;-72
2021/08/06 03:05:32;;;;;;;8.45;6.60;;;19.60;94.30;;;;;;5032609;28;20111;-71
2021/08/06 03:08:16;;;;;;;7.23;5.93;;;19.60;94.40;;;;;;5033775;28;20032;-71
2021/08/06 03:11:00;;;;;;;6.60;5.90;;;19.70;94.40;;;;;;5031455;28;20787;-71
2021/08/06 03:13:44;;;;;;;7.45;6.13;;;19.70;94.40;;;;;;5032263;28;20075;-71
2021/08/06 03:16:28;;;;;;;7.20;5.97;;;19.70;94.40;;;;;;5032069;28;20091;-71
2021/08/06 03:19:12;;;;;;;6.13;5.53;;;19.70;94.40;;;;;;5033682;28;20524;-71
2021/08/06 03:21:56;;;;;;;7.70;6.13;;;19.70;94.40;;;;;;5028580;28;20107;-71
2021/08/06 03:24:40;;;;;;;5.78;5.20;;;19.70;94.60;;;;;;5032670;28;20060;-71
2021/08/06 03:27:24;;;;;;;6.78;6.07;;;19.80;94.30;;;;;;5025745;28;20049;-71
2021/08/06 03:30:11;;;;;;;6.53;5.60;;;19.80;94.30;;;;;;5032105;28;20627;-71
2021/08/06 03:32:55;;;;;;;6.65;5.38;;;19.80;94.30;;;;;;5016850;28;20040;-71
2021/08/06 03:35:39;;;;;;;7.13;6.07;;;19.80;94.20;;;;;;5031737;28;20037;-71
2021/08/06 03:38:24;;;;;;;6.40;5.65;;;19.80;94.30;;;;;;5033440;28;20099;-70
2021/08/06 03:41:08;;;;;;;;;;;19.80;94.30;;;;;;5031444;28;20056;-73
2021/08/06 03:43:53;;;;;;;5.85;5.13;;;19.80;94.10;;;;;;5017687;28;19920;-73
2021/08/06 03:46:37;;;;;;;5.90;5.30;;;19.70;94.30;;;;;;5031036;28;20052;-72
2021/08/06 03:49:21;;;;;;;6.40;5.80;;;19.70;94.30;;;;;;5030175;28;20056;-72
2021/08/06 03:52:05;;;;;;;7.77;5.10;;;19.70;94.40;;;;;;5031943;28;20088;-73
2021/08/06 03:54:49;;;;;;;6.15;5.45;;;19.70;94.40;;;;;;5031012;28;20346;-71
2021/08/06 03:57:33;;;;;;;6.13;5.35;;;19.70;94.40;;;;;;5032618;28;20044;-71
2021/08/06 04:00:18;;;;;;;7.55;5.82;;;19.70;94.40;;;;;;5029968;28;20060;-72
2021/08/06 04:02:56;;;;;;;7.35;5.88;;;19.70;94.40;;;;;;5016112;28;20396;-72
2021/08/06 04:05:40;;;;;;;6.93;6.22;;;19.70;94.40;;;;;;5023830;28;20048;-74
2021/08/06 04:08:26;;;;;;;7.75;6.07;;;19.70;94.40;;;;;;5015597;28;20042;-75
2021/08/06 04:11:12;;;;;;;7.97;5.85;;;19.70;94.40;;;;;;5030648;28;20032;-75
2021/08/06 04:13:57;;;;;;;7.13;5.70;;;19.60;94.40;;;;;;5029722;28;20071;-75
2021/08/06 04:16:43;;;;;;;7.85;5.72;;;19.70;94.50;;;;;;5028925;28;20035;-75
2021/08/06 04:19:29;;;;;;;7.95;5.78;;;19.70;94.60;;;;;;5029000;28;20113;-73
2021/08/06 04:22:15;;;;;;;7.20;6.50;;;19.70;94.60;;;;;;5010885;28;20038;-73
2021/08/06 04:25:01;;;;;;;6.35;5.75;;;19.70;94.60;;;;;;5024539;28;20132;-74
2021/08/06 04:27:47;;;;;;;6.90;5.72;;;19.70;94.60;;;;;;5030831;28;20025;-73
2021/08/06 04:30:32;;;;;;;6.50;5.88;;;19.70;94.70;;;;;;5028660;28;20424;-71
2021/08/06 04:33:18;;;;;;;7.22;6.20;;;19.70;94.70;;;;;;5029807;28;20033;-71
2021/08/06 04:36:04;;;;;;;6.57;5.90;;;19.70;94.70;;;;;;5021632;28;20036;-72
2021/08/06 04:38:50;;;;;;;6.97;6.28;;;19.70;94.70;;;;;;5031037;28;20033;-72
2021/08/06 04:41:36;;;;;;;8.25;6.80;;;19.70;94.70;;;;;;5030009;28;20084;-71
2021/08/06 04:44:22;;;;;;;8.05;6.80;;;19.70;94.70;;;;;;5031234;28;20041;-72
2021/08/06 04:47:07;;;;;;;8.75;7.18;;;19.80;94.60;;;;;;5030933;28;20104;-72
2021/08/06 04:49:53;;;;;;;8.43;6.88;;;19.80;94.60;;;;;;5028067;28;20417;-72
2021/08/06 04:52:39;;;;;;;9.15;7.32;;;19.80;94.60;;;;;;5030406;28;20383;-72
2021/08/06 04:55:26;;;;;;;9.10;7.57;;;19.80;94.50;;;;;;5017189;28;20164;-72
2021/08/06 04:58:12;;;;;;;8.93;7.00;;;19.80;94.50;;;;;;5030116;28;20057;-72
2021/08/06 05:00:58;;;;;;;10.32;7.30;;;19.70;94.50;;;;;;5027665;28;20033;-72
2021/08/06 05:03:44;;;;;;;10.43;7.88;;;19.80;94.50;;;;;;5031161;28;20037;-71
2021/08/06 05:06:30;;;;;;;8.52;7.65;;;19.80;94.50;;;;;;5028231;28;20030;-72
2021/08/06 05:09:15;;;;;;;8.80;7.50;;;19.80;94.50;;;;;;5043805;28;20068;-71
2021/08/06 05:12:01;;;;;;;8.70;7.80;;;19.80;94.50;;;;;;5041955;28;20029;-71
2021/08/06 05:14:47;;;;;;;9.68;8.15;;;19.80;94.60;;;;;;5028379;28;20109;-71
2021/08/06 05:17:33;;;;;;;8.68;7.50;;;19.80;94.70;;;;;;5018436;28;20038;-71
2021/08/06 05:20:19;;;;;;;8.82;7.47;;;19.80;94.70;;;;;;5032337;28;20034;-74
2021/08/06 05:23:05;;;;;;;9.75;7.75;;;19.80;94.70;;;;;;5042784;28;20518;-73
2021/08/06 05:25:50;;;;;;;13.25;8.23;;;19.80;94.80;;;;;;5037952;28;20600;-74
2021/08/06 05:28:36;;;;;;;9.15;7.97;;;19.80;94.80;;;;;;5031596;28;20469;-73
2021/08/06 05:31:22;;;;;;;9.05;7.82;;;19.90;94.80;;;;;;5029517;28;20073;-73
2021/08/06 05:34:08;;;;;;;11.10;8.63;;;19.80;94.80;;;;;;5027743;28;20049;-73
2021/08/06 05:36:54;;;;;;;10.90;8.65;;;19.80;94.80;;;;;;5028612;28;20037;-73
2021/08/06 05:39:40;;;;;;;9.40;7.47;;;19.80;94.80;;;;;;5029910;28;20026;-73
2021/08/06 05:42:26;;;;;;;9.07;7.60;;;19.90;94.90;;;;;;5016800;28;20033;-74
2021/08/06 05:45:11;;;;;;;9.57;8.55;;;19.90;94.90;;;;;;5015525;28;20117;-78
2021/08/06 05:47:57;;;;;;;10.60;8.07;;;19.90;94.90;;;;;;5021152;28;20028;-73
2021/08/06 05:50:43;;;;;;;9.35;8.35;;;20.00;94.90;;;;;;4989138;28;20046;-74
2021/08/06 05:53:29;;;;;;;8.88;7.97;;;20.00;94.80;;;;;;4991756;28;20081;-74
2021/08/06 05:56:15;;;;;;;10.15;7.88;;;20.00;94.80;;;;;;4989655;28;20030;-72
2021/08/06 05:59:00;;;;;;;9.63;7.43;;;20.00;94.80;;;;;;4990606;28;20053;-72
2021/08/06 06:01:46;;;;;;;12.13;8.35;;;20.10;94.80;;;;;;4978124;28;20041;-76
2021/08/06 06:04:31;;;;;;;12.27;8.45;;;20.10;94.90;;;;;;4989133;28;20457;-81
2021/08/06 06:07:15;;;;;;;9.57;8.00;;;20.10;94.90;;;;;;4992072;28;20130;-77
2021/08/06 06:09:59;;;;;;;12.52;7.97;;;20.20;94.80;;;;;;4984931;28;20383;-76
2021/08/06 06:12:43;;;;;;;8.75;7.28;;;20.20;94.60;;;;;;4983987;28;20057;-76
2021/08/06 06:15:27;;;;;;;12.20;7.53;;;20.20;94.50;;;;;;4993088;28;20089;-78
2021/08/06 06:18:11;;;;;;;11.03;8.90;;;20.20;94.50;;;;;;4993938;28;20328;-72
2021/08/06 06:20:55;;;;;;;10.95;8.18;;;20.30;94.50;;;;;;4989058;28;20101;-73
2021/08/06 06:23:39;;;;;;;9.88;7.72;;;20.30;94.50;;;;;;4993493;28;20200;-73
2021/08/06 06:26:24;;;;;;;10.57;7.50;;;20.40;94.50;;;;;;4989721;28;20108;-72
2021/08/06 06:29:08;;;;;;;15.77;8.43;;;20.40;94.60;;;;;;4986574;28;20061;-73
2021/08/06 06:31:52;;;;;;;9.07;7.72;;;20.50;94.70;;;;;;4984011;28;20049;-72
2021/08/06 06:34:36;;;;;;;8.73;7.83;;;20.50;94.80;;;;;;4992576;28;20580;-72
2021/08/06 06:37:20;;;;;;;9.25;8.00;;;20.60;94.80;;;;;;4991617;28;20129;-73
2021/08/06 06:40:04;;;;;;;8.93;7.07;;;20.70;94.70;;;;;;4990844;28;20097;-73
2021/08/06 06:42:49;;;;;;;12.25;7.72;;;20.80;94.70;;;;;;4992169;28;20049;-73
2021/08/06 06:45:33;;;;;;;11.45;7.55;;;20.80;94.60;;;;;;4990560;28;20034;-72
2021/08/06 06:48:17;;;;;;;10.02;7.07;;;20.90;94.70;;;;;;4982982;28;20045;-73
2021/08/06 06:51:01;;;;;;;10.60;6.93;;;20.90;94.60;;;;;;5009327;28;20069;-70
2021/08/06 06:53:47;;;;;;;6.10;5.20;;;21.00;94.50;;;;;;5010553;28;20108;-73
2021/08/06 06:56:31;;;;;;;6.53;5.68;;;21.10;94.20;;;;;;5010470;28;20032;-73
2021/08/06 06:59:15;;;;;;;6.83;5.50;;;21.20;93.80;;;;;;5008100;28;20044;-74
2021/08/06 07:01:59;;;;;;;8.33;5.93;;;21.30;93.80;;;;;;5008816;28;20914;-74
2021/08/06 07:04:43;;;;;;;9.85;5.68;;;21.30;93.50;;;;;;5000998;28;20292;-74
2021/08/06 07:07:27;;;;;;;8.30;5.70;;;21.30;93.50;;;;;;5006265;28;20101;-73
2021/08/06 07:10:12;;;;;;;9.70;6.15;;;21.40;93.60;;;;;;5011660;28;20295;-73
2021/08/06 07:12:57;;;;;;;8.88;6.07;;;21.50;93.20;;;;;;5011239;28;20049;-73
2021/08/06 07:15:41;;;;;;;7.13;5.25;;;21.50;93.30;;;;;;5008427;28;20057;-72
2021/08/06 07:18:26;;;;;;;7.75;6.10;;;21.50;93.50;;;;;;5004811;28;20056;-72
2021/08/06 07:21:12;;;;;;;9.00;6.30;;;21.70;93.40;;;;;;5007922;28;20077;-72
2021/08/06 07:23:56;;;;;;;10.18;5.65;;;21.80;93.20;;;;;;5009908;28;20096;-71
2021/08/06 07:26:40;;;;;;;8.23;5.47;;;21.90;93.20;;;;;;5007466;28;20076;-72
2021/08/06 07:29:05;;;;;;;6.72;5.05;;;22.00;92.90;;;;;;5008991;28;20478;-72
2021/08/06 07:31:32;;;;;;;8.13;5.68;;;22.10;92.60;;;;;;4991402;28;20036;-72
2021/08/06 07:33:57;;;;;;;8.43;5.43;;;22.10;92.10;;;;;;5007182;28;20454;-73
2021/08/06 07:36:23;;;;;;;8.45;5.78;;;22.20;92.00;;;;;;5013684;28;20125;-74
2021/08/06 07:38:48;;;;;;;8.57;5.20;;;22.30;92.10;;;;;;5008328;28;20028;-74
2021/08/06 07:41:14;;;;;;;6.68;4.65;;;22.30;92.00;;;;;;5004820;28;20383;-73
2021/08/06 07:43:39;;;;;;;11.52;4.63;;;22.40;91.60;;;;;;5007662;28;20022;-73
2021/08/06 07:46:05;;;;;;;7.25;4.40;;;22.50;91.70;;;;;;5009698;28;20080;-74
2021/08/06 07:48:30;;;;;;;6.05;4.28;;;22.50;91.60;;;;;;5009002;28;20105;-74
2021/08/06 07:50:56;;;;;;;6.05;4.35;;;22.60;90.80;;;;;;5005788;28;20061;-74
2021/08/06 07:53:21;;;;;;;6.50;3.95;;;22.70;90.40;;;;;;5008033;28;20057;-73
2021/08/06 07:55:47;;;;;;;6.75;4.18;;;22.70;90.00;;;;;;5006955;28;20167;-73
2021/08/06 07:58:12;;;;;;;5.63;4.00;;;22.80;90.60;;;;;;5013165;28;20033;-72
2021/08/06 08:00:38;;;;;;;6.47;4.10;;;22.90;90.60;;;;;;5009879;28;20088;-72
2021/08/06 08:03:03;;;;;;;4.70;3.72;;;23.00;90.50;;;;;;5013111;28;20022;-73
2021/08/06 08:05:29;;;;;;;5.47;3.83;;;23.00;89.30;;;;;;5019237;28;20474;-73
2021/08/06 08:07:54;;;;;;;8.70;4.30;;;23.20;88.90;;;;;;5012903;28;20073;-72
2021/08/06 08:10:20;;;;;;;5.32;4.18;;;23.20;89.20;;;;;;5011949;28;20061;-73
2021/08/06 08:12:46;;;;;;;4.95;3.78;;;23.30;87.40;;;;;;5010031;28;20033;-70
2021/08/06 08:15:12;;;;;;;4.63;3.90;;;23.30;86.50;;;;;;5007843;28;20037;-71
2021/08/06 08:17:37;;;;;;;5.80;4.07;;;23.30;85.90;;;;;;5012735;28;20029;-71
2021/08/06 08:20:04;;;;;;;7.40;4.47;;;23.30;86.20;;;;;;5009160;28;20022;-73
2021/08/06 08:22:30;;;;;;;3.92;3.30;;;23.30;85.50;;;;;;5013978;28;20018;-72
2021/08/06 08:24:55;;;;;;;4.85;4.10;;;23.30;84.80;;;;;;5009685;28;20033;-71
2021/08/06 08:27:21;;;;;;;5.50;3.67;;;23.30;84.90;;;;;;5012291;28;20038;-71
2021/08/06 08:29:47;;;;;;;5.03;3.90;;;23.30;85.50;;;;;;5011192;28;20401;-71
2021/08/06 08:32:17;;;;;;;6.57;3.80;;;23.40;84.60;;;;;;5005398;28;20037;-72
2021/08/06 08:34:43;;;;;;;4.72;3.88;;;23.40;83.90;;;;;;5009803;28;20030;-71
2021/08/06 08:37:09;;;;;;;5.60;4.00;;;23.40;83.60;;;;;;5009517;28;20026;-71
2021/08/06 08:39:35;;;;;;;4.55;3.53;;;23.40;84.00;;;;;;5012103;28;20525;-71
2021/08/06 08:42:02;;;;;;;3.65;2.85;;;23.40;84.80;;;;;;5009860;28;20056;-71
2021/08/06 08:44:32;;;;;;;3.65;3.13;;;23.50;83.10;;;;;;5011004;28;20045;-71
2021/08/06 08:46:58;;;;;;;3.75;3.30;;;23.50;82.50;;;;;;5009856;28;20023;-72
2021/08/06 08:49:30;;;;;;;4.32;3.58;;;23.50;81.80;;;;;;5003581;28;20372;-71
2021/08/06 08:51:55;;;;;;;4.57;3.28;;;23.50;81.10;;;;;;4991710;28;20022;-72
2021/08/06 08:54:21;;;;;;;5.47;3.20;;;23.60;80.80;;;;;;5011101;28;20037;-71
2021/08/06 08:56:46;;;;;;;4.32;3.38;;;23.60;81.30;;;;;;5010752;28;20022;-72
2021/08/06 08:59:12;;;;;;;6.43;3.35;;;23.60;81.50;;;;;;5010213;28;20025;-72
2021/08/06 09:01:38;;;;;;;4.68;3.47;;;23.60;80.60;;;;;;5001678;28;20031;-72
2021/08/06 09:04:17;;;;;;;5.07;3.55;;;23.70;81.20;;;;;;5008684;28;20453;-72
2021/08/06 09:06:43;;;;;;;5.22;3.20;;;23.70;80.20;;;;;;5007283;28;20061;-70
2021/08/06 09:09:17;;;;;;;4.43;3.83;;;23.80;79.60;;;;;;5007013;28;20513;-71
2021/08/06 09:11:43;;;;;;;3.92;3.03;;;23.90;79.60;;;;;;5002316;28;20105;-72
2021/08/06 09:14:41;;;;;;;3.13;2.63;;;23.90;78.40;;;;;;4992375;28;20088;-72
2021/08/06 09:17:09;;;;;;;5.22;3.20;;;23.90;78.00;;;;;;4966133;28;20096;-71
2021/08/06 09:19:44;;;;;;;4.75;2.88;;;24.00;76.50;;;;;;5006753;28;20433;-73
2021/08/06 09:22:17;;;;;;;3.50;2.58;;;24.00;76.70;;;;;;5007891;28;20057;-72
2021/08/06 09:25:13;;;;;;;2.90;2.35;;;24.10;74.60;;;;;;5008690;28;20382;-72
2021/08/06 09:27:47;;;;;;;4.05;2.50;;;24.10;74.10;;;;;;5001563;28;20030;-72
2021/08/06 09:30:34;;;;;;;3.70;2.50;;;24.20;72.70;;;;;;5009168;28;20401;-72
2021/08/06 09:33:01;;;;;;;4.13;2.80;;;24.20;72.60;;;;;;4992954;28;20026;-72
2021/08/06 09:35:29;;;;;;;4.53;2.47;;;24.20;72.80;;;;;;4992432;28;20040;-72
2021/08/06 09:37:55;;;;;;;4.53;2.55;;;24.30;72.00;;;;;;5011016;28;20033;-72
2021/08/06 09:40:23;;;;;;;3.88;2.40;;;24.30;71.40;;;;;;5009837;28;20081;-72
2021/08/06 09:43:00;;;;;;;4.45;2.40;;;24.30;72.80;;;;;;5010224;28;20034;-73
2021/08/06 09:45:33;;;;;;;4.63;2.70;;;24.40;72.10;;;;;;5009674;28;20030;-73
2021/08/06 09:48:01;;;;;;;3.10;2.45;;;24.50;69.90;;;;;;5014967;28;20033;-75
2021/08/06 09:50:36;;;;;;;4.35;2.50;;;24.60;70.50;;;;;;5012228;28;20034;-73
2021/08/06 09:53:25;;;;;;;4.35;2.60;;;24.60;70.20;;;;;;5014469;28;20033;-72
2021/08/06 09:56:16;;;;;;;4.03;2.53;;;24.70;71.60;;;;;;5014523;28;20442;-73
2021/08/06 09:59:00;;;;;;;6.43;2.22;;;24.70;69.60;;;;;;5008087;28;20441;-74
2021/08/06 10:01:44;;;;;;;3.80;2.20;;;24.70;69.10;;;;;;5010409;28;20065;-73
2021/08/06 10:04:28;;;;;;;3.80;2.10;;;24.80;70.90;;;;;;5015166;28;20128;-73
2021/08/06 10:07:12;;;;;;;4.38;2.17;;;24.80;68.80;;;;;;5014013;28;20048;-73
2021/08/06 10:09:56;;;;;;;4.10;2.20;;;24.90;66.20;;;;;;5013265;28;20053;-73
2021/08/06 10:12:42;;;;;;;2.92;1.92;;;25.00;65.10;;;;;;5014859;28;20081;-73
2021/08/06 10:15:27;;;;;;;3.05;1.90;;;25.00;64.60;;;;;;5018612;28;20052;-73
2021/08/06 10:18:11;;;;;;;3.28;2.10;;;25.10;64.40;;;;;;5014918;28;20433;-73
2021/08/06 10:20:55;;;;;;;2.83;2.13;;;25.10;61.50;;;;;;5012862;28;20052;-74
2021/08/06 10:23:39;;;;;;;2.75;1.98;;;25.20;62.80;;;;;;5014713;28;20040;-72
2021/08/06 10:26:23;;;;;;;3.05;2.25;;;25.30;63.00;;;;;;5012835;28;20052;-72
2021/08/06 10:29:07;;;;;;;3.42;2.22;;;25.30;64.00;;;;;;5024877;28;20095;-73
2021/08/06 10:31:33;;;;;;;5.78;2.53;;;25.40;64.30;;;;;;5009887;28;20434;-73
2021/08/06 10:34:12;;;;;;;2.75;2.03;;;25.50;62.90;;;;;;5013536;28;20034;-73
2021/08/06 10:36:43;;;;;;;3.33;2.15;;;25.60;62.90;;;;;;5012643;28;20038;-73
2021/08/06 10:39:33;;;;;;;3.35;2.00;;;25.60;62.10;;;;;;5014586;28;20057;-73
2021/08/06 10:42:01;;;;;;;3.38;2.22;;;25.60;62.10;;;;;;5012457;28;20048;-74
2021/08/06 10:44:46;;;;;;;3.53;2.25;;;25.60;61.90;;;;;;5014231;28;20057;-73
2021/08/06 10:47:12;;;;;;;4.43;2.30;;;25.60;61.60;;;;;;4994348;28;20045;-74
2021/08/06 10:49:38;;;;;;;3.67;2.40;;;25.70;61.70;;;;;;4993992;28;20053;-73
2021/08/06 10:52:18;;;;;;;4.10;2.10;;;25.70;61.80;;;;;;5011863;28;20017;-73
2021/08/06 10:54:44;;;;;;;2.60;1.98;;;25.60;61.40;;;;;;5013073;28;20029;-74
2021/08/06 10:57:16;;;;;;;3.28;2.17;;;25.70;61.50;;;;;;5012311;28;20033;-74
2021/08/06 10:59:42;;;;;;;4.75;3.42;;;25.80;61.50;;;;;;5011869;28;20022;-73
2021/08/06 11:02:43;;;;;;;4.38;2.53;;;26.00;61.50;;;;;;5013868;28;20041;-73
2021/08/06 11:05:44;;;;;;;3.58;2.25;;;26.10;62.40;;;;;;5011246;28;20073;-73
2021/08/06 11:08:43;;;;;;;4.43;2.17;;;26.20;62.00;;;;;;4972219;28;20069;-73
2021/08/06 11:11:09;;;;;;;4.05;2.92;;;26.20;60.30;;;;;;5011884;28;20029;-73
2021/08/06 11:13:46;;;;;;;3.22;2.28;;;26.30;59.00;;;;;;5012394;28;20061;-74
2021/08/06 11:16:12;;;;;;;3.78;2.53;;;26.30;59.00;;;;;;5012121;28;20032;-74
2021/08/06 11:18:45;;;;;;;7.13;4.18;;;26.30;59.10;;;;;;5013742;28;20123;-74
2021/08/06 11:21:12;;;;;;;3.45;2.78;;;26.30;59.60;;;;;;5011468;28;20386;-74
2021/08/06 11:23:37;;;;;;;3.22;2.42;;;26.30;60.00;;;;;;5013335;28;20117;-73
2021/08/06 11:26:08;;;;;;;3.88;2.55;;;26.30;60.30;;;;;;5012304;28;20518;-74
2021/08/06 11:28:34;;;;;;;3.78;2.38;;;26.30;58.60;;;;;;5012987;28;20033;-74
2021/08/06 11:30:59;;;;;;;5.38;2.67;;;26.40;59.00;;;;;;5010700;28;20050;-74
2021/08/06 11:33:25;;;;;;;4.30;2.80;;;26.50;59.50;;;;;;4994071;28;20049;-73
2021/08/06 11:35:50;;;;;;;8.27;3.30;;;26.40;59.50;;;;;;5011966;28;20117;-73
2021/08/06 11:38:23;;;;;;;3.72;2.30;;;26.40;60.00;;;;;;5012189;28;20063;-73
2021/08/06 11:40:50;;;;;;;3.97;2.25;;;26.40;58.40;;;;;;5011248;28;20053;-73
2021/08/06 11:43:25;;;;;;;5.75;3.08;;;26.30;59.40;;;;;;5012074;28;20037;-73
2021/08/06 11:45:53;;;;;;;4.45;2.58;;;26.30;60.40;;;;;;4994576;28;20458;-73
2021/08/06 11:48:20;;;;;;;2.80;2.13;;;26.30;59.60;;;;;;5012225;28;20390;-74
2021/08/06 11:50:58;;;;;;;4.53;2.80;;;26.20;58.60;;;;;;5011900;28;20034;-73
2021/08/06 11:53:26;;;;;;;4.78;2.47;;;26.30;59.10;;;;;;5012899;28;20030;-74
2021/08/06 11:55:54;;;;;;;3.00;1.88;;;26.40;58.00;;;;;;5009946;28;20033;-74
2021/08/06 11:58:33;;;;;;;4.28;2.00;;;26.40;57.80;;;;;;5012726;28;20026;-74
2021/08/06 12:00:59;;;;;;;5.15;2.30;;;26.40;57.30;;;;;;4994384;28;20068;-74
2021/08/06 12:03:25;;;;;;;2.78;2.10;;;26.40;58.60;;;;;;5010382;28;20327;-74
2021/08/06 12:05:59;;;;;;;3.80;2.22;;;26.50;59.40;;;;;;5010228;28;20316;-73
2021/08/06 12:08:30;;;;;;;2.63;2.10;;;26.60;58.10;;;;;;5012561;28;20037;-74
2021/08/06 12:11:07;;;;;;;4.68;2.17;;;26.70;58.10;;;;;;4991263;28;20391;-73
2021/08/06 12:13:39;;;;;;;3.83;2.45;;;26.80;58.10;;;;;;5002603;28;20060;-74
2021/08/06 12:16:10;;;;;;;3.45;2.33;;;26.80;59.40;;;;;;5021234;28;20037;-74
2021/08/06 12:18:38;;;;;;;2.80;2.30;;;26.90;57.90;;;;;;5032143;28;20022;-72
2021/08/06 12:21:25;;;;;;;4.18;2.55;;;26.90;58.20;;;;;;5008866;28;20041;-73
2021/08/06 12:24:15;;;;;;;4.18;2.13;;;27.00;58.40;;;;;;4991969;28;20087;-73
2021/08/06 12:26:59;;;;;;;4.13;2.75;;;27.10;56.90;;;;;;5003951;28;20042;-73
2021/08/06 12:29:43;;;;;;;2.78;2.00;;;27.10;56.30;;;;;;4992464;28;20450;-73
2021/08/06 12:32:32;;;;;;;3.13;2.30;;;27.20;56.20;;;;;;5003757;28;20092;-73
2021/08/06 12:35:20;;;;;;;3.40;2.67;;;27.20;55.90;;;;;;5010338;28;20041;-73
2021/08/06 12:38:22;;;;;;;3.85;2.20;;;27.20;56.20;;;;;;5012640;28;20036;-73
2021/08/06 12:41:07;;;;;;;2.88;2.30;;;27.30;55.40;;;;;;5010564;28;20033;-72
2021/08/06 12:44:12;;;;;;;4.60;2.63;;;27.30;55.20;;;;;;5012509;28;20037;-72
2021/08/06 12:46:58;;;;;;;3.50;2.30;;;27.40;55.50;;;;;;5009079;28;20152;-73
2021/08/06 12:49:57;;;;;;;3.40;2.20;;;27.50;54.80;;;;;;5010328;28;20056;-73
2021/08/06 12:52:43;;;;;;;4.13;2.20;;;27.50;55.10;;;;;;4992228;28;20153;-73
2021/08/06 12:55:28;;;;;;;3.70;2.20;;;27.50;56.00;;;;;;4997259;28;20049;-73
2021/08/06 12:58:14;;;;;;;2.70;1.98;;;27.70;54.40;;;;;;5011605;28;20125;-73
2021/08/06 13:01:00;;;;;;;3.70;2.08;;;27.80;54.40;;;;;;5008728;28;20154;-74
2021/08/06 13:03:44;;;;;;;2.72;1.92;;;27.80;54.00;;;;;;4997263;28;20064;-73
2021/08/06 13:06:45;;;;;;;2.75;2.10;;;27.80;52.10;;;;;;5010212;28;20084;-73
2021/08/06 13:09:42;;;;;;;4.00;2.35;;;27.90;51.60;;;;;;5011433;28;20053;-73
2021/08/06 13:12:28;;;;;;;2.85;2.10;;;28.00;52.20;;;;;;4977183;28;20429;-72
2021/08/06 13:15:13;;;;;;;5.32;2.95;;;28.10;52.20;;;;;;4980945;28;20121;-72
2021/08/06 13:17:57;;;;;;;3.38;1.75;;;28.20;52.70;;;;;;5011078;28;20504;-73
2021/08/06 13:20:43;;;;;;;2.33;1.85;;;28.30;51.50;;;;;;5008654;28;20092;-73
2021/08/06 13:23:27;;;;;;;3.42;2.03;;;28.40;51.50;;;;;;4995711;28;20478;-73
2021/08/06 13:26:11;;;;;;;2.90;1.88;;;28.40;50.60;;;;;;5010148;28;20505;-72
2021/08/06 13:28:55;;;;;;;4.97;2.20;;;28.30;50.90;;;;;;5007142;28;20045;-73
2021/08/06 13:31:40;;;;;;;2.35;1.92;;;28.20;50.60;;;;;;5006893;28;20095;-73
2021/08/06 13:34:24;;;;;;;2.80;1.95;;;28.00;51.40;;;;;;5008221;28;20029;-73
2021/08/06 13:37:08;;;;;;;2.10;1.75;;;28.10;51.10;;;;;;4990912;28;20113;-74
2021/08/06 13:39:52;;;;;;;4.32;1.95;;;28.20;51.10;;;;;;4991331;28;20169;-74
2021/08/06 13:42:37;;;;;;;2.38;1.92;;;28.30;51.40;;;;;;5009099;28;20060;-73
2021/08/06 13:45:23;;;;;;;2.85;2.00;;;28.50;51.10;;;;;;5008729;28;20405;-73
2021/08/06 13:48:07;;;;;;;2.28;1.70;;;28.70;51.30;;;;;;5008988;28;20033;-73
2021/08/06 13:50:51;;;;;;;2.22;1.88;;;28.80;51.10;;;;;;5009781;28;20084;-73
2021/08/06 13:53:35;;;;;;;2.53;1.80;;;29.00;50.10;;;;;;5010032;28;20449;-73
2021/08/06 13:56:19;;;;;;;3.05;2.30;;;29.20;49.40;;;;;;5008721;28;20036;-72
2021/08/06 13:59:03;;;;;;;3.15;2.00;;;29.30;50.60;;;;;;5011286;28;20080;-72
2021/08/06 14:01:48;;;;;;;2.70;1.90;;;29.40;50.70;;;;;;5009627;28;20049;-72